TimeCDT,TemperatureF,Dew PointF,Humidity,Sea Level PressureIn,VisibilityMPH,Wind Direction,Wind SpeedMPH,Gust SpeedMPH,PrecipitationIn,Events,Conditions,WindDirDegrees,DateUTC
12:56 AM,59.0,33.1,38,29.96,10.0,NNE,6.9,-,N/A,,Mostly Cloudy,30,2013-03-20 05:56:00
1:56 AM,59.0,30.9,35,29.95,10.0,NE,8.1,-,N/A,,Clear,40,2013-03-20 06:56:00
2:56 AM,57.9,30.0,35,29.94,10.0,NE,6.9,-,N/A,,Clear,50,2013-03-20 07:56:00
3:56 AM,57.0,30.0,36,29.94,10.0,NNE,5.8,-,N/A,,Scattered Clouds,20,2013-03-20 08:56:00
4:56 AM,55.9,30.9,39,29.96,10.0,NNE,6.9,-,N/A,,Partly Cloudy,20,2013-03-20 09:56:00
5:56 AM,55.0,32.0,42,30.00,10.0,NNE,5.8,-,N/A,,Overcast,20,2013-03-20 10:56:00
6:56 AM,54.0,32.0,43,30.04,10.0,NNE,8.1,-,N/A,,Overcast,30,2013-03-20 11:56:00
7:56 AM,54.0,30.0,40,30.05,10.0,NE,8.1,-,N/A,,Overcast,50,2013-03-20 12:56:00
8:56 AM,55.9,30.0,37,30.06,10.0,North,10.4,-,N/A,,Mostly Cloudy,10,2013-03-20 13:56:00
9:56 AM,57.0,30.9,37,30.06,10.0,North,12.7,-,N/A,,Mostly Cloudy,10,2013-03-20 14:56:00
10:56 AM,59.0,30.0,33,30.04,10.0,East,4.6,-,N/A,,Mostly Cloudy,80,2013-03-20 15:56:00
11:56 AM,61.0,30.9,32,30.04,10.0,NE,3.5,-,N/A,,Mostly Cloudy,50,2013-03-20 16:56:00
12:56 PM,61.0,32.0,34,30.03,5.0,North,4.6,-,N/A,,Smoke,350,2013-03-20 17:56:00
1:08 PM,60.8,33.8,36,30.07,1.0,North,5.8,-,N/A,,Smoke,350,2013-03-20 18:08:00
1:21 PM,60.8,32.0,34,30.05,3.0,North,4.6,-,N/A,,Smoke,10,2013-03-20 18:21:00
1:56 PM,62.1,34.0,35,30.02,4.0,NNW,5.8,-,N/A,,Smoke,340,2013-03-20 18:56:00
2:41 PM,62.6,32.0,32,30.04,10.0,Variable,5.8,-,N/A,,Mostly Cloudy,0,2013-03-20 19:41:00
2:56 PM,62.1,30.9,31,30.00,10.0,North,12.7,-,N/A,,Mostly Cloudy,350,2013-03-20 19:56:00
3:56 PM,64.0,28.0,26,29.98,10.0,NNE,11.5,-,N/A,,Scattered Clouds,20,2013-03-20 20:56:00
4:56 PM,64.9,28.9,26,29.96,10.0,North,15.0,-,N/A,,Scattered Clouds,360,2013-03-20 21:56:00
5:56 PM,63.0,25.0,24,29.95,10.0,NNW,13.8,-,N/A,,Partly Cloudy,340,2013-03-20 22:56:00
6:56 PM,59.0,27.0,29,29.95,10.0,NNW,11.5,-,N/A,,Clear,340,2013-03-20 23:56:00
7:56 PM,53.1,28.0,38,29.97,10.0,NNW,8.1,-,N/A,,Clear,340,2013-03-21 00:56:00
8:56 PM,50.0,28.9,44,29.99,10.0,NW,3.5,-,N/A,,Clear,320,2013-03-21 01:56:00
9:56 PM,48.0,28.9,48,29.99,10.0,WNW,3.5,-,N/A,,Clear,300,2013-03-21 02:56:00
10:56 PM,43.0,33.1,68,29.99,10.0,Calm,Calm,-,N/A,,Clear,0,2013-03-21 03:56:00
11:56 PM,37.9,32.0,79,29.98,10.0,NNW,3.5,-,N/A,,Clear,340,2013-03-21 04:56:00